createdAt,value
2022-12-31T00:01:53.822Z,9.84
2022-12-31T00:04:25.004Z,9.81
2022-12-31T00:06:53.889Z,9.77
2022-12-31T00:09:22.756Z,9.84
2022-12-31T00:11:51.883Z,9.86
2022-12-31T00:14:18.997Z,9.79
2022-12-31T00:16:45.821Z,9.73
2022-12-31T00:19:15.615Z,9.72
2022-12-31T00:21:43.579Z,9.65
2022-12-31T00:24:11.224Z,9.56
2022-12-31T00:26:37.936Z,9.61
2022-12-31T00:29:09.963Z,9.49
2022-12-31T00:31:38.543Z,9.38
2022-12-31T00:34:07.650Z,9.25
2022-12-31T00:36:39.563Z,9.25
2022-12-31T00:39:08.374Z,9.23
2022-12-31T00:41:35.166Z,9.29
2022-12-31T00:44:06.660Z,9.26
2022-12-31T00:46:33.589Z,9.40
2022-12-31T00:49:02.541Z,9.35
2022-12-31T00:51:31.661Z,9.23
2022-12-31T00:54:05.327Z,9.12
2022-12-31T00:56:35.554Z,9.05
2022-12-31T00:59:04.611Z,9.02
2022-12-31T01:01:37.209Z,9.01
2022-12-31T01:04:09.399Z,8.97
2022-12-31T01:06:36.703Z,8.96
2022-12-31T01:09:06.542Z,8.98
2022-12-31T01:11:33.510Z,9.00
2022-12-31T01:14:02.937Z,9.02
2022-12-31T01:16:31.099Z,8.96
2022-12-31T01:19:04.293Z,8.93
2022-12-31T01:21:37.858Z,8.94
2022-12-31T01:24:04.958Z,8.92
2022-12-31T01:26:32.048Z,8.90
2022-12-31T01:29:00.837Z,8.83
2022-12-31T01:31:28.295Z,8.82
2022-12-31T01:33:57.357Z,8.79
2022-12-31T01:36:26.787Z,8.75
2022-12-31T01:38:55.454Z,8.79
2022-12-31T01:41:25.352Z,8.80
2022-12-31T01:43:59.250Z,8.82
2022-12-31T01:46:43.379Z,8.82
2022-12-31T01:49:29.287Z,8.88
2022-12-31T01:51:59.023Z,8.94
2022-12-31T01:54:27.266Z,8.98
2022-12-31T01:56:57.603Z,8.97
2022-12-31T01:59:31.027Z,8.93
2022-12-31T02:02:03.585Z,8.92
2022-12-31T02:04:30.423Z,8.94
2022-12-31T02:07:01.208Z,8.94
2022-12-31T02:09:30.802Z,8.92
2022-12-31T02:11:57.403Z,8.93
2022-12-31T02:14:38.254Z,8.94
2022-12-31T02:17:14.399Z,8.97
2022-12-31T02:20:04.584Z,8.97
2022-12-31T02:22:49.673Z,9.00
2022-12-31T02:25:28.449Z,9.03
2022-12-31T02:28:16.500Z,8.99
2022-12-31T02:30:50.300Z,8.96
2022-12-31T02:33:55.020Z,8.96
2022-12-31T02:36:27.714Z,9.00
2022-12-31T02:38:59.011Z,8.97
2022-12-31T02:41:46.689Z,9.01
2022-12-31T02:44:29.123Z,9.02
2022-12-31T02:47:07.954Z,9.01
2022-12-31T02:49:43.322Z,9.05
2022-12-31T02:52:27.448Z,9.11
2022-12-31T02:55:15.590Z,9.13
2022-12-31T02:58:04.171Z,9.10
2022-12-31T03:01:13.532Z,9.08
2022-12-31T03:03:42.720Z,9.04
2022-12-31T03:06:13.468Z,9.04
2022-12-31T03:09:03.145Z,9.01
2022-12-31T03:11:48.309Z,9.03
2022-12-31T03:14:14.839Z,9.09
2022-12-31T03:16:46.230Z,9.10
2022-12-31T03:19:31.360Z,9.07
2022-12-31T03:22:16.775Z,9.10
2022-12-31T03:25:01.917Z,9.09
2022-12-31T03:27:31.462Z,9.08
2022-12-31T03:29:58.025Z,9.09
2022-12-31T03:32:24.602Z,9.11
2022-12-31T03:34:53.405Z,9.15
2022-12-31T03:37:22.010Z,9.14
2022-12-31T03:39:50.837Z,9.16
2022-12-31T03:42:17.382Z,9.16
2022-12-31T03:44:43.949Z,9.17
2022-12-31T03:47:10.783Z,9.18
2022-12-31T03:49:37.325Z,9.19
2022-12-31T03:52:09.328Z,9.18
2022-12-31T03:54:35.894Z,9.20
2022-12-31T03:57:02.420Z,9.19
2022-12-31T03:59:31.970Z,9.18
2022-12-31T04:02:01.019Z,9.19
2022-12-31T04:04:27.666Z,9.23
2022-12-31T04:06:58.945Z,9.20
2022-12-31T04:09:25.572Z,9.17
2022-12-31T04:11:52.224Z,9.16
2022-12-31T04:14:21.764Z,9.15
2022-12-31T04:16:48.681Z,9.20
2022-12-31T04:19:17.418Z,9.18
2022-12-31T04:21:44.001Z,9.17
2022-12-31T04:24:13.079Z,9.17
2022-12-31T04:26:43.754Z,9.21
2022-12-31T04:29:13.224Z,9.22
2022-12-31T04:31:39.784Z,9.22
2022-12-31T04:34:08.589Z,9.19
2022-12-31T04:36:35.642Z,9.23
2022-12-31T04:39:04.543Z,9.23
2022-12-31T04:41:33.562Z,9.21
2022-12-31T04:44:02.475Z,9.19
2022-12-31T04:46:31.218Z,9.20
2022-12-31T04:48:58.323Z,9.20
2022-12-31T04:51:29.333Z,9.20
2022-12-31T04:53:56.671Z,9.19
2022-12-31T04:56:28.780Z,9.21
2022-12-31T04:58:55.515Z,9.19
2022-12-31T05:01:22.886Z,9.19
2022-12-31T05:03:50.022Z,9.23
2022-12-31T05:06:21.819Z,9.26
2022-12-31T05:08:49.244Z,9.27
2022-12-31T05:11:18.668Z,9.29
2022-12-31T05:13:45.351Z,9.24
2022-12-31T05:16:12.135Z,9.23
2022-12-31T05:18:41.499Z,9.18
2022-12-31T05:21:08.229Z,9.14
2022-12-31T05:23:35.075Z,9.08
2022-12-31T05:26:04.080Z,9.06
2022-12-31T05:28:33.170Z,9.07
2022-12-31T05:31:00.637Z,9.07
2022-12-31T05:33:29.433Z,9.06
2022-12-31T05:35:58.391Z,9.05
2022-12-31T05:38:28.494Z,9.02
2022-12-31T05:41:05.981Z,9.02
2022-12-31T05:43:32.742Z,8.97
2022-12-31T05:46:05.374Z,8.95
2022-12-31T05:48:34.428Z,8.96
2022-12-31T05:51:01.276Z,8.89
2022-12-31T05:53:27.931Z,8.86
2022-12-31T05:55:56.966Z,8.87
2022-12-31T05:58:25.781Z,8.79
2022-12-31T06:00:54.976Z,8.78
2022-12-31T06:03:21.749Z,8.75
2022-12-31T06:05:48.451Z,8.71
2022-12-31T06:08:17.558Z,8.64
2022-12-31T06:10:46.357Z,8.67
2022-12-31T06:13:12.922Z,8.59
2022-12-31T06:15:40.285Z,8.49
2022-12-31T06:18:07.589Z,8.44
2022-12-31T06:20:41.026Z,8.39
2022-12-31T06:23:09.938Z,8.39
2022-12-31T06:25:42.333Z,8.30
2022-12-31T06:28:13.243Z,8.27
2022-12-31T06:30:47.414Z,8.30
2022-12-31T06:33:14.037Z,8.26
2022-12-31T06:35:44.138Z,8.29
2022-12-31T06:38:10.704Z,8.28
2022-12-31T06:40:38.063Z,8.32
2022-12-31T06:43:05.324Z,8.32
2022-12-31T06:45:31.867Z,8.30
2022-12-31T06:48:00.635Z,8.26
2022-12-31T06:50:29.488Z,8.23
2022-12-31T06:52:56.021Z,8.24
2022-12-31T06:55:22.950Z,8.26
2022-12-31T06:57:49.743Z,8.32
2022-12-31T07:00:19.700Z,8.30
2022-12-31T07:03:10.844Z,8.37
2022-12-31T07:05:52.018Z,8.38
2022-12-31T07:08:30.770Z,8.41
2022-12-31T07:11:08.083Z,8.39
2022-12-31T07:13:53.242Z,8.36
2022-12-31T07:16:34.666Z,8.37
2022-12-31T07:19:52.470Z,8.31
2022-12-31T07:22:24.120Z,8.30
2022-12-31T07:24:50.955Z,8.26
2022-12-31T07:27:37.873Z,8.26
2022-12-31T07:30:15.933Z,8.24
2022-12-31T07:33:09.702Z,8.28
2022-12-31T07:35:48.758Z,8.21
2022-12-31T07:38:28.538Z,8.25
2022-12-31T07:41:13.510Z,8.31
2022-12-31T07:43:52.207Z,8.34
2022-12-31T07:46:29.940Z,8.42
2022-12-31T07:48:56.819Z,8.36
2022-12-31T07:51:25.901Z,8.35
2022-12-31T07:53:57.207Z,8.45
2022-12-31T07:56:23.833Z,8.40
2022-12-31T07:58:56.284Z,8.43
2022-12-31T08:01:41.836Z,8.42
2022-12-31T08:04:11.489Z,8.42
2022-12-31T08:06:40.780Z,8.41
2022-12-31T08:09:29.558Z,8.50
2022-12-31T08:12:01.442Z,8.64
2022-12-31T08:14:34.746Z,8.62
2022-12-31T08:17:01.588Z,8.65
2022-12-31T08:19:31.249Z,8.72
2022-12-31T08:22:15.961Z,8.74
2022-12-31T08:25:23.715Z,8.77
2022-12-31T08:27:59.210Z,8.80
2022-12-31T08:30:37.550Z,8.87
2022-12-31T08:33:54.895Z,8.98
2022-12-31T08:36:24.403Z,9.02
2022-12-31T08:39:01.371Z,9.11
2022-12-31T08:41:43.274Z,9.12
2022-12-31T08:44:31.696Z,9.16
2022-12-31T08:47:22.859Z,9.16
2022-12-31T08:49:52.182Z,9.24
2022-12-31T08:52:26.943Z,9.34
2022-12-31T08:54:54.034Z,9.36
2022-12-31T08:57:55.819Z,9.45
2022-12-31T09:00:23.062Z,9.53
2022-12-31T09:03:04.806Z,9.60
2022-12-31T09:05:50.938Z,9.66
2022-12-31T09:08:44.935Z,9.76
2022-12-31T09:11:29.964Z,9.79
2022-12-31T09:14:08.489Z,9.87
2022-12-31T09:17:12.801Z,9.88
2022-12-31T09:19:39.516Z,9.93
2022-12-31T09:22:06.266Z,10.01
2022-12-31T09:24:33.183Z,10.02
2022-12-31T09:27:22.477Z,10.12
2022-12-31T09:30:05.639Z,10.16
2022-12-31T09:32:41.533Z,10.21
2022-12-31T09:35:30.089Z,10.30
2022-12-31T09:38:11.264Z,10.44
2022-12-31T09:40:44.241Z,10.45
2022-12-31T09:43:32.445Z,10.49
2022-12-31T09:46:20.580Z,10.48
2022-12-31T09:49:30.567Z,10.49
2022-12-31T09:52:11.641Z,10.55
2022-12-31T09:54:54.259Z,10.54
2022-12-31T09:57:29.803Z,10.65
2022-12-31T10:00:25.354Z,10.75
2022-12-31T10:03:29.563Z,10.64
2022-12-31T10:06:04.993Z,10.78
2022-12-31T10:09:02.280Z,10.75
2022-12-31T10:12:10.124Z,10.72
2022-12-31T10:14:51.918Z,10.78
2022-12-31T10:17:59.603Z,10.82
2022-12-31T10:20:57.091Z,10.83
2022-12-31T10:23:38.497Z,10.89
2022-12-31T10:26:16.304Z,10.94
2022-12-31T10:29:20.202Z,11.08
2022-12-31T10:32:02.005Z,11.08
2022-12-31T10:34:45.032Z,11.17
2022-12-31T10:37:20.383Z,11.30
2022-12-31T10:40:13.457Z,11.35
2022-12-31T10:43:02.907Z,11.45
2022-12-31T10:46:02.570Z,11.53
2022-12-31T10:48:56.857Z,11.52
2022-12-31T10:51:26.411Z,11.60
2022-12-31T10:53:52.983Z,11.62
2022-12-31T10:56:38.386Z,11.61
2022-12-31T10:59:30.035Z,11.65
2022-12-31T11:02:21.512Z,11.60
2022-12-31T11:05:26.957Z,11.66
2022-12-31T11:08:11.524Z,11.81
2022-12-31T11:10:57.038Z,11.95
2022-12-31T11:13:53.595Z,11.91
2022-12-31T11:16:20.763Z,11.92
2022-12-31T11:19:07.068Z,11.88
2022-12-31T11:22:17.543Z,11.72
2022-12-31T11:25:02.310Z,11.74
2022-12-31T11:27:56.560Z,11.68
2022-12-31T11:30:27.491Z,11.68
2022-12-31T11:33:09.233Z,11.63
2022-12-31T11:35:44.908Z,11.65
2022-12-31T11:38:23.571Z,11.77
2022-12-31T11:41:11.700Z,11.80
2022-12-31T11:43:50.196Z,11.85
2022-12-31T11:46:16.960Z,11.90
2022-12-31T11:48:55.641Z,11.98
2022-12-31T11:51:49.994Z,12.00
2022-12-31T11:54:38.091Z,12.06
2022-12-31T11:57:23.637Z,12.17
2022-12-31T12:00:06.703Z,12.17
2022-12-31T12:02:37.794Z,12.20
2022-12-31T12:05:11.269Z,12.21
2022-12-31T12:07:38.622Z,12.21
2022-12-31T12:10:23.214Z,12.17
2022-12-31T12:12:56.179Z,12.27
2022-12-31T12:15:36.396Z,12.27
2022-12-31T12:18:18.519Z,12.25
2022-12-31T12:20:48.906Z,12.26
2022-12-31T12:23:25.146Z,12.31
2022-12-31T12:25:52.726Z,12.27
2022-12-31T12:28:27.663Z,12.25
2022-12-31T12:31:04.234Z,12.36
2022-12-31T12:33:44.923Z,12.33
2022-12-31T12:36:17.038Z,12.36
2022-12-31T12:38:44.421Z,12.30
2022-12-31T12:41:21.976Z,12.27
2022-12-31T12:43:48.614Z,12.20
2022-12-31T12:46:32.800Z,12.22
2022-12-31T12:49:00.167Z,12.20
2022-12-31T12:51:41.535Z,12.18
2022-12-31T12:54:29.901Z,12.20
2022-12-31T12:56:59.268Z,12.19
2022-12-31T12:59:41.037Z,12.17
2022-12-31T13:02:27.716Z,12.16
2022-12-31T13:05:03.213Z,12.17
2022-12-31T13:07:41.026Z,12.10
2022-12-31T13:10:22.670Z,12.17
2022-12-31T13:13:24.381Z,12.12
2022-12-31T13:16:11.923Z,12.10
2022-12-31T13:18:44.359Z,12.03
2022-12-31T13:21:19.980Z,12.04
2022-12-31T13:24:00.067Z,12.06
2022-12-31T13:27:01.953Z,12.09
2022-12-31T13:29:33.223Z,12.06
2022-12-31T13:32:04.881Z,12.02
2022-12-31T13:34:36.557Z,12.02
2022-12-31T13:37:06.967Z,12.05
2022-12-31T13:39:47.115Z,12.06
2022-12-31T13:42:19.732Z,12.06
2022-12-31T13:44:54.595Z,12.02
2022-12-31T13:47:32.554Z,12.02
2022-12-31T13:50:02.664Z,12.04
2022-12-31T13:52:48.986Z,11.96
2022-12-31T13:55:26.525Z,11.99
2022-12-31T13:58:16.333Z,11.92
2022-12-31T14:01:09.117Z,11.94
2022-12-31T14:03:50.701Z,11.89
2022-12-31T14:06:52.054Z,11.84
2022-12-31T14:09:33.689Z,11.86
2022-12-31T14:12:30.699Z,11.79
2022-12-31T14:15:18.419Z,11.76
2022-12-31T14:18:34.171Z,11.73
2022-12-31T14:21:48.690Z,11.68
2022-12-31T14:24:49.536Z,11.70
2022-12-31T14:27:26.397Z,11.63
2022-12-31T14:30:03.880Z,11.57
2022-12-31T14:32:45.768Z,11.65
2022-12-31T14:35:42.620Z,11.62
2022-12-31T14:38:21.853Z,11.61
2022-12-31T14:41:10.337Z,11.56
2022-12-31T14:43:50.504Z,11.55
2022-12-31T14:46:44.618Z,11.48
2022-12-31T14:49:53.130Z,11.44
2022-12-31T14:52:21.769Z,11.42
2022-12-31T14:55:22.972Z,11.39
2022-12-31T15:00:51.209Z,11.27
2022-12-31T15:03:17.802Z,11.27
2022-12-31T15:06:12.318Z,11.22
2022-12-31T15:08:51.097Z,11.18
2022-12-31T15:11:53.953Z,11.14
2022-12-31T15:14:37.627Z,11.07
2022-12-31T15:17:29.446Z,11.04
2022-12-31T15:20:33.411Z,11.10
2022-12-31T15:23:00.123Z,11.07
2022-12-31T15:25:40.044Z,11.02
2022-12-31T15:28:33.619Z,10.99
2022-12-31T15:31:13.086Z,10.96
2022-12-31T15:33:54.823Z,10.93
2022-12-31T15:36:29.494Z,10.88
2022-12-31T15:39:09.113Z,10.87
2022-12-31T15:42:18.819Z,10.83
2022-12-31T15:44:45.184Z,10.83
2022-12-31T15:47:36.407Z,10.79
2022-12-31T15:50:10.160Z,10.79
2022-12-31T15:52:43.357Z,10.78
2022-12-31T15:55:33.463Z,10.72
2022-12-31T15:58:18.161Z,10.71
2022-12-31T16:01:10.077Z,10.66
2022-12-31T16:03:37.377Z,10.62
2022-12-31T16:06:11.112Z,10.60
2022-12-31T16:08:43.969Z,10.58
2022-12-31T16:11:13.630Z,10.60
2022-12-31T16:13:47.105Z,10.49
2022-12-31T16:16:27.972Z,10.46
2022-12-31T16:18:56.150Z,10.45
2022-12-31T16:21:24.873Z,10.39
2022-12-31T16:23:53.810Z,10.35
2022-12-31T16:26:25.643Z,10.34
2022-12-31T16:28:52.424Z,10.30
2022-12-31T16:31:21.932Z,10.26
2022-12-31T16:33:48.660Z,10.30
2022-12-31T16:36:25.646Z,10.28
2022-12-31T16:38:59.471Z,10.27
2022-12-31T16:41:26.041Z,10.25
2022-12-31T16:43:52.642Z,10.20
2022-12-31T16:46:28.139Z,10.20
2022-12-31T16:48:54.703Z,10.19
2022-12-31T16:51:26.906Z,10.19
2022-12-31T16:53:53.639Z,10.15
2022-12-31T16:56:36.672Z,10.12
2022-12-31T16:59:17.757Z,10.13
2022-12-31T17:01:51.761Z,10.10
2022-12-31T17:04:20.672Z,10.10
2022-12-31T17:06:50.505Z,10.11
2022-12-31T17:09:23.451Z,10.11
2022-12-31T17:11:54.124Z,10.09
2022-12-31T17:14:28.719Z,10.08
2022-12-31T17:17:06.957Z,10.12
2022-12-31T17:19:45.921Z,10.01
2022-12-31T17:22:35.871Z,9.98
2022-12-31T17:25:08.576Z,9.96
2022-12-31T17:27:39.769Z,9.89
2022-12-31T17:30:27.903Z,9.89
2022-12-31T17:33:10.051Z,9.88
2022-12-31T17:35:42.482Z,9.95
2022-12-31T17:38:20.899Z,9.94
2022-12-31T17:40:53.352Z,9.96
2022-12-31T17:43:22.616Z,10.03
2022-12-31T17:45:54.256Z,10.07
2022-12-31T17:48:26.033Z,10.01
2022-12-31T17:50:57.043Z,10.03
2022-12-31T17:53:26.343Z,10.07
2022-12-31T17:56:01.794Z,9.99
2022-12-31T17:58:36.498Z,9.96
2022-12-31T18:01:07.236Z,9.91
2022-12-31T18:03:34.284Z,9.88
2022-12-31T18:06:05.373Z,9.97
2022-12-31T18:08:32.081Z,9.83
2022-12-31T18:11:01.177Z,9.77
2022-12-31T18:13:30.893Z,9.74
2022-12-31T18:16:00.043Z,9.71
2022-12-31T18:18:32.751Z,9.73
2022-12-31T18:21:07.882Z,9.74
2022-12-31T18:23:47.940Z,9.74
2022-12-31T18:26:17.286Z,9.77
2022-12-31T18:28:44.081Z,9.76
2022-12-31T18:31:19.359Z,9.73
2022-12-31T18:33:47.193Z,9.70
2022-12-31T18:36:16.379Z,9.64
2022-12-31T18:38:45.470Z,9.67
2022-12-31T18:41:23.170Z,9.66
2022-12-31T18:43:53.044Z,9.56
2022-12-31T18:46:22.251Z,9.44
2022-12-31T18:48:53.607Z,9.38
2022-12-31T18:51:27.846Z,9.33
2022-12-31T18:53:56.247Z,9.34
2022-12-31T18:56:25.143Z,9.34
2022-12-31T18:58:54.166Z,9.31
2022-12-31T19:01:38.110Z,9.29
2022-12-31T19:04:31.232Z,9.26
2022-12-31T19:07:00.254Z,9.28
2022-12-31T19:12:17.251Z,9.24
2022-12-31T19:14:43.901Z,9.25
2022-12-31T19:17:12.798Z,9.28
2022-12-31T19:19:39.596Z,9.31
2022-12-31T19:22:13.492Z,9.28
2022-12-31T19:24:40.221Z,9.27
2022-12-31T19:27:06.778Z,9.23
2022-12-31T19:29:36.425Z,9.18
2022-12-31T19:32:03.130Z,9.18
2022-12-31T19:34:32.046Z,9.31
2022-12-31T19:37:00.873Z,9.26
2022-12-31T19:39:27.600Z,9.28
2022-12-31T19:41:59.323Z,9.18
2022-12-31T19:44:29.154Z,9.16
2022-12-31T19:46:55.749Z,9.08
2022-12-31T19:49:22.343Z,9.07
2022-12-31T19:51:53.469Z,9.10
2022-12-31T19:54:22.273Z,9.01
2022-12-31T19:56:51.218Z,8.89
2022-12-31T19:59:17.807Z,8.78
2022-12-31T20:01:47.420Z,8.72
2022-12-31T20:04:14.108Z,8.66
2022-12-31T20:06:40.705Z,8.58
2022-12-31T20:09:09.350Z,8.51
2022-12-31T20:11:38.279Z,8.46
2022-12-31T20:14:04.912Z,8.41
2022-12-31T20:16:32.231Z,8.40
2022-12-31T20:18:58.839Z,8.36
2022-12-31T20:21:28.966Z,8.32
2022-12-31T20:24:01.453Z,8.27
2022-12-31T20:26:28.091Z,8.24
2022-12-31T20:28:54.704Z,8.23
2022-12-31T20:31:24.809Z,8.26
2022-12-31T20:33:54.586Z,8.24
2022-12-31T20:36:22.339Z,8.27
2022-12-31T20:38:49.178Z,8.26
2022-12-31T20:41:22.152Z,8.30
2022-12-31T20:43:51.462Z,8.36
2022-12-31T20:46:24.466Z,8.36
2022-12-31T20:48:52.868Z,8.40
2022-12-31T20:51:26.309Z,8.49
2022-12-31T20:54:06.798Z,8.55
2022-12-31T20:56:39.247Z,8.65
2022-12-31T20:59:09.864Z,8.54
2022-12-31T21:02:11.742Z,8.52
2022-12-31T21:04:25.945Z,8.46
2022-12-31T21:06:52.582Z,8.39
2022-12-31T21:09:23.985Z,8.38
2022-12-31T21:12:11.762Z,8.34
2022-12-31T21:14:44.409Z,8.26
2022-12-31T21:17:11.535Z,8.22
2022-12-31T21:19:42.810Z,8.16
2022-12-31T21:22:12.441Z,8.10
2022-12-31T21:24:41.299Z,8.06
2022-12-31T21:27:07.906Z,8.06
2022-12-31T21:29:41.842Z,8.05
2022-12-31T21:32:19.282Z,8.05
2022-12-31T21:35:00.183Z,8.05
2022-12-31T21:37:59.198Z,8.06
2022-12-31T21:40:21.183Z,8.07
2022-12-31T21:42:50.711Z,8.03
2022-12-31T21:45:17.277Z,8.02
2022-12-31T21:48:02.265Z,8.06
2022-12-31T21:50:31.317Z,8.04
2022-12-31T21:52:57.947Z,8.04
2022-12-31T21:55:45.614Z,8.03
2022-12-31T21:58:25.954Z,8.00
2022-12-31T22:01:12.657Z,8.00
2022-12-31T22:03:41.968Z,7.97
2022-12-31T22:06:29.123Z,7.95
2022-12-31T22:09:01.603Z,8.02
2022-12-31T22:11:30.747Z,7.96
2022-12-31T22:13:57.515Z,7.90
2022-12-31T22:16:24.304Z,7.95
2022-12-31T22:18:53.320Z,7.94
2022-12-31T22:21:22.356Z,7.90
2022-12-31T22:23:51.954Z,7.88
2022-12-31T22:26:29.427Z,7.87
2022-12-31T22:28:59.332Z,7.89
2022-12-31T22:31:30.509Z,7.88
2022-12-31T22:33:59.818Z,7.93
2022-12-31T22:36:26.659Z,7.97
2022-12-31T22:38:58.192Z,7.96
2022-12-31T22:41:29.355Z,7.93
2022-12-31T22:44:03.618Z,7.94
2022-12-31T22:46:33.118Z,7.92
2022-12-31T22:49:01.686Z,8.07
2022-12-31T22:51:56.329Z,8.02
2022-12-31T22:54:18.729Z,7.93
2022-12-31T22:56:47.879Z,7.89
2022-12-31T22:59:14.468Z,7.89
2022-12-31T23:01:41.381Z,7.88
2022-12-31T23:04:08.094Z,7.89
2022-12-31T23:06:43.447Z,7.85
2022-12-31T23:09:30.500Z,7.80
2022-12-31T23:11:57.213Z,7.79
2022-12-31T23:14:44.911Z,7.81
2022-12-31T23:17:40.451Z,7.78
2022-12-31T23:20:30.173Z,7.77
2022-12-31T23:23:07.091Z,7.76
2022-12-31T23:25:35.469Z,7.68
2022-12-31T23:28:05.629Z,7.77
2022-12-31T23:30:35.112Z,7.65
2022-12-31T23:33:01.752Z,7.65
2022-12-31T23:35:31.009Z,7.68
2022-12-31T23:37:57.632Z,7.71
2022-12-31T23:40:34.234Z,7.74
2022-12-31T23:43:09.210Z,7.74
2022-12-31T23:45:36.580Z,7.74
2022-12-31T23:48:03.424Z,7.67
2022-12-31T23:50:32.387Z,7.68
2022-12-31T23:52:58.948Z,7.63
2022-12-31T23:55:28.553Z,7.61
2022-12-31T23:57:55.279Z,7.58
